Airport Name : Bradshaw AAF

Other Name : Pohakuloa

ICAO : PHSF

IATA : BSF

FAA : PBSF

Latitude : 19.760056

Longitude : -155.553717

Country : United States

Local Date and Time : 7/23/2018 3:44:00 AM

 

TAF (Terminal Aerodrome Forecast)

 

METAR (METeorological Aerodrome Report)

PHSF 231256Z AUTO 13006KT 10SM CLR 15/09 A3028 RMK AO2 SLP123 WND DATA ESTMD T01480089 $

PHSF 231156Z AUTO 13006KT 4SM M CLR 14/11 A3031 RMK AO2 SLP134 WND DATA ESTMD T01380109 10179 20129 57011 $

PHSF 231056Z AUTO 15008G15KT 5SM M CLR 14/11 A3032 RMK AO2 SLP137 WND DATA ESTMD T01410110 $

PHSF 230956Z AUTO 18008KT 10SM CLR 15/05 A3033 RMK AO2 SLP134 WND DATA ESTMD T01520047 402660075 $